createdAt,value
2019-03-22T00:01:00.987Z,35.25
2019-03-22T00:02:36.579Z,35.80
2019-03-22T00:04:12.165Z,39.63
2019-03-22T00:05:47.818Z,33.90
2019-03-22T00:07:23.689Z,33.53
2019-03-22T00:08:59.255Z,32.63
2019-03-22T00:10:35.729Z,34.83
2019-03-22T00:12:11.315Z,36.93
2019-03-22T00:13:46.901Z,38.13
2019-03-22T00:15:22.865Z,41.73
2019-03-22T00:16:58.735Z,40.73
2019-03-22T00:18:34.964Z,44.30
2019-03-22T00:20:11.016Z,45.20
2019-03-22T00:21:47.178Z,48.05
2019-03-22T00:23:23.051Z,44.48
2019-03-22T00:24:58.682Z,44.03
2019-03-22T00:26:34.244Z,41.88
2019-03-22T00:28:10.408Z,45.52
2019-03-22T00:29:46.024Z,43.87
2019-03-22T00:31:21.608Z,44.83
2019-03-22T00:32:57.219Z,44.95
2019-03-22T00:34:32.800Z,42.27
2019-03-22T00:36:08.777Z,45.65
2019-03-22T00:37:44.356Z,46.55
2019-03-22T00:39:19.934Z,46.08
2019-03-22T00:40:55.499Z,44.93
2019-03-22T00:42:31.181Z,36.73
2019-03-22T00:44:06.826Z,43.75
2019-03-22T00:45:43.252Z,50.35
2019-03-22T00:47:18.830Z,51.58
2019-03-22T00:48:54.430Z,46.77
2019-03-22T00:50:29.913Z,48.30
2019-03-22T00:52:05.151Z,43.28
2019-03-22T00:53:40.038Z,37.58
2019-03-22T00:55:15.310Z,40.03
2019-03-22T00:56:50.206Z,41.95
2019-03-22T00:58:25.097Z,44.80
2019-03-22T00:59:59.987Z,44.98
2019-03-22T01:01:34.929Z,56.88
2019-03-22T01:03:09.830Z,60.58
2019-03-22T01:04:45.005Z,53.05
2019-03-22T01:06:20.215Z,49.33
2019-03-22T01:07:55.535Z,46.53
2019-03-22T01:09:30.443Z,39.30
2019-03-22T01:11:05.551Z,40.15
2019-03-22T01:12:40.445Z,41.95
2019-03-22T01:14:15.378Z,39.27
2019-03-22T01:15:50.278Z,44.98
2019-03-22T01:17:25.322Z,47.33
2019-03-22T01:19:00.460Z,41.63
2019-03-22T01:20:35.379Z,40.00
2019-03-22T01:22:10.282Z,41.85
2019-03-22T01:23:45.166Z,43.90
2019-03-22T01:25:20.061Z,38.00
2019-03-22T01:26:55.026Z,41.53
2019-03-22T01:28:29.927Z,40.85
2019-03-22T01:30:05.906Z,46.80
2019-03-22T01:31:40.930Z,40.83
2019-03-22T01:33:15.917Z,40.28
2019-03-22T01:34:50.814Z,41.02
2019-03-22T01:36:25.713Z,42.62
2019-03-22T01:38:00.697Z,39.95
2019-03-22T01:39:35.885Z,45.45
2019-03-22T01:41:11.118Z,44.95
2019-03-22T01:42:46.023Z,49.27
2019-03-22T01:44:21.217Z,46.98
2019-03-22T01:45:56.157Z,58.90
2019-03-22T01:47:31.345Z,49.88
2019-03-22T01:49:06.610Z,51.33
2019-03-22T01:50:41.605Z,52.48
2019-03-22T01:52:16.498Z,51.58
2019-03-22T01:53:51.650Z,53.60
2019-03-22T01:55:26.627Z,60.88
2019-03-22T01:57:01.811Z,61.77
2019-03-22T01:58:37.042Z,59.13
2019-03-22T02:00:12.774Z,56.75
2019-03-22T02:01:47.711Z,49.93
2019-03-22T02:03:22.602Z,46.33
2019-03-22T02:04:57.739Z,46.18
2019-03-22T02:06:32.902Z,49.65
2019-03-22T02:08:07.818Z,54.08
2019-03-22T02:09:43.103Z,54.65
2019-03-22T02:11:18.018Z,54.30
2019-03-22T02:12:52.986Z,50.17
2019-03-22T02:14:28.242Z,44.63
2019-03-22T02:16:03.137Z,44.10
2019-03-22T02:17:38.035Z,48.35
2019-03-22T02:19:13.226Z,55.08
2019-03-22T02:20:48.221Z,50.85
2019-03-22T02:22:23.202Z,44.83
2019-03-22T02:23:58.407Z,47.55
2019-03-22T02:25:33.300Z,51.08
2019-03-22T02:27:08.210Z,51.55
2019-03-22T02:28:43.399Z,57.58
2019-03-22T02:30:18.963Z,60.55
2019-03-22T02:31:54.261Z,60.15
2019-03-22T02:33:29.158Z,57.90
2019-03-22T02:35:04.215Z,61.15
2019-03-22T02:36:39.105Z,62.93
2019-03-22T02:38:14.276Z,66.30
2019-03-22T02:39:49.239Z,64.35
2019-03-22T02:41:24.439Z,59.08
2019-03-22T02:42:59.334Z,67.60
2019-03-22T02:44:34.587Z,59.67
2019-03-22T02:46:09.484Z,64.47
2019-03-22T02:47:44.477Z,53.20
2019-03-22T02:49:19.387Z,47.05
2019-03-22T02:50:56.147Z,45.70
2019-03-22T02:52:31.179Z,42.93
2019-03-22T02:54:06.291Z,47.27
2019-03-22T02:55:41.202Z,47.25
2019-03-22T02:57:16.147Z,42.48
2019-03-22T02:58:51.051Z,41.48
2019-03-22T03:00:26.052Z,46.68
2019-03-22T03:02:01.020Z,55.80
2019-03-22T03:03:35.969Z,49.95
2019-03-22T03:05:11.135Z,52.53
2019-03-22T03:06:46.734Z,53.20
2019-03-22T03:08:21.768Z,47.10
2019-03-22T03:09:56.667Z,47.80
2019-03-22T03:11:31.919Z,48.42
2019-03-22T03:13:07.247Z,48.40
2019-03-22T03:14:42.787Z,49.18
2019-03-22T03:16:18.532Z,47.03
2019-03-22T03:17:53.546Z,42.43
2019-03-22T03:19:28.691Z,42.80
2019-03-22T03:21:03.582Z,45.28
2019-03-22T03:22:38.466Z,41.60
2019-03-22T03:24:13.791Z,44.65
2019-03-22T03:25:48.674Z,54.18
2019-03-22T03:27:23.561Z,59.83
2019-03-22T03:28:58.855Z,51.83
2019-03-22T03:30:33.850Z,49.70
2019-03-22T03:32:09.146Z,45.10
2019-03-22T03:33:44.247Z,59.93
2019-03-22T03:35:19.653Z,58.30
2019-03-22T03:36:54.593Z,53.45
2019-03-22T03:38:29.565Z,46.90
2019-03-22T03:40:06.344Z,47.75
2019-03-22T03:41:41.263Z,51.45
2019-03-22T03:43:18.977Z,49.05
2019-03-22T03:44:54.574Z,46.20
2019-03-22T03:46:30.085Z,43.63
2019-03-22T03:48:06.564Z,41.85
2019-03-22T03:49:41.808Z,46.92
2019-03-22T03:51:17.040Z,49.85
2019-03-22T03:52:52.043Z,45.83
2019-03-22T03:54:26.947Z,42.30
2019-03-22T03:56:01.931Z,43.95
2019-03-22T03:57:36.863Z,58.45
2019-03-22T03:59:12.092Z,55.40
2019-03-22T04:00:47.492Z,51.55
2019-03-22T04:02:22.395Z,52.62
2019-03-22T04:03:57.290Z,54.23
2019-03-22T04:05:32.643Z,44.67
2019-03-22T04:07:07.651Z,50.98
2019-03-22T04:08:42.888Z,45.60
2019-03-22T04:10:17.819Z,47.62
2019-03-22T04:11:52.863Z,45.58
2019-03-22T04:13:27.863Z,49.98
2019-03-22T04:15:02.765Z,46.95
2019-03-22T04:16:37.667Z,47.95
2019-03-22T04:18:12.591Z,56.92
2019-03-22T04:19:47.509Z,62.08
2019-03-22T04:21:22.487Z,59.73
2019-03-22T04:22:57.798Z,67.05
2019-03-22T04:24:32.728Z,68.07
2019-03-22T04:26:07.705Z,71.97
2019-03-22T04:27:42.608Z,77.75
2019-03-22T04:29:17.550Z,61.88
2019-03-22T04:30:52.526Z,55.95
2019-03-22T04:32:27.791Z,67.60
2019-03-22T04:34:04.129Z,69.27
2019-03-22T04:35:39.668Z,70.92
2019-03-22T04:37:14.717Z,70.83
2019-03-22T04:38:49.639Z,59.67
2019-03-22T04:40:26.441Z,57.17
2019-03-22T04:42:01.512Z,55.35
2019-03-22T04:43:36.427Z,60.33
2019-03-22T04:45:11.494Z,51.55
2019-03-22T04:46:47.421Z,45.88
2019-03-22T04:48:27.902Z,49.73
2019-03-22T04:50:03.318Z,60.92
2019-03-22T04:51:38.666Z,77.22
2019-03-22T04:53:18.359Z,63.52
2019-03-22T04:54:56.186Z,59.48
2019-03-22T04:56:34.038Z,53.10
2019-03-22T04:58:11.606Z,46.50
2019-03-22T04:59:48.794Z,44.67
2019-03-22T05:01:25.949Z,42.45
2019-03-22T05:03:01.202Z,43.90
2019-03-22T05:04:39.261Z,43.65
2019-03-22T05:06:16.682Z,44.95
2019-03-22T05:07:52.678Z,54.60
2019-03-22T05:09:29.963Z,47.88
2019-03-22T05:11:07.150Z,51.02
2019-03-22T05:12:44.056Z,48.28
2019-03-22T05:14:20.773Z,52.50
2019-03-22T05:15:56.736Z,52.48
2019-03-22T05:17:32.710Z,55.43
2019-03-22T05:19:10.143Z,54.38
2019-03-22T05:20:46.955Z,49.58
2019-03-22T05:22:23.478Z,52.95
2019-03-22T05:24:02.187Z,47.67
2019-03-22T05:25:37.643Z,52.00
2019-03-22T05:27:13.424Z,50.52
2019-03-22T05:28:48.765Z,49.42
2019-03-22T05:31:06.019Z,43.73
2019-03-22T05:32:40.939Z,42.75
2019-03-22T05:34:15.877Z,43.35
2019-03-22T05:35:51.055Z,46.08
2019-03-22T05:37:25.950Z,50.12
2019-03-22T05:39:01.115Z,49.73
2019-03-22T05:40:36.058Z,51.55
2019-03-22T05:42:10.966Z,50.85
2019-03-22T05:43:46.152Z,49.27
2019-03-22T05:45:21.117Z,45.17
2019-03-22T05:46:56.323Z,45.92
2019-03-22T05:48:31.494Z,44.15
2019-03-22T05:50:07.025Z,42.75
2019-03-22T05:51:41.977Z,41.33
2019-03-22T05:53:16.945Z,46.05
2019-03-22T05:54:52.116Z,47.15
2019-03-22T05:56:27.476Z,45.08
2019-03-22T05:58:02.472Z,40.43
2019-03-22T05:59:42.430Z,47.73
2019-03-22T06:01:14.385Z,44.90
2019-03-22T06:02:49.550Z,41.33
2019-03-22T06:04:24.757Z,38.38
2019-03-22T06:05:59.692Z,39.13
2019-03-22T06:07:36.985Z,38.60
2019-03-22T06:09:11.330Z,42.03
2019-03-22T06:10:46.237Z,35.75
2019-03-22T06:12:21.235Z,38.05
2019-03-22T06:13:56.138Z,35.83
2019-03-22T06:15:31.537Z,34.63
2019-03-22T06:17:06.514Z,34.30
2019-03-22T06:18:41.494Z,34.08
2019-03-22T06:20:16.743Z,31.85
2019-03-22T06:21:51.887Z,25.90
2019-03-22T06:23:26.798Z,26.12
2019-03-22T06:25:01.739Z,27.13
2019-03-22T06:26:36.651Z,24.47
2019-03-22T06:28:11.918Z,23.25
2019-03-22T06:29:54.187Z,24.67
2019-03-22T06:31:23.595Z,22.22
2019-03-22T06:32:58.767Z,25.30
2019-03-22T06:34:33.752Z,24.63
2019-03-22T06:36:08.698Z,27.27
2019-03-22T06:37:43.858Z,27.22
2019-03-22T06:39:18.838Z,28.92
2019-03-22T06:40:53.748Z,31.62
2019-03-22T06:42:28.804Z,29.70
2019-03-22T06:44:04.124Z,32.53
2019-03-22T06:45:39.315Z,32.35
2019-03-22T06:47:14.230Z,30.15
2019-03-22T06:48:50.353Z,33.40
2019-03-22T06:50:25.958Z,32.20
2019-03-22T06:52:01.558Z,32.23
2019-03-22T06:53:37.203Z,32.20
2019-03-22T06:55:12.994Z,27.58
2019-03-22T06:56:48.605Z,26.37
2019-03-22T06:58:24.435Z,25.90
2019-03-22T07:00:06.320Z,26.83
2019-03-22T07:01:37.689Z,34.90
2019-03-22T07:03:13.284Z,24.63
2019-03-22T07:04:48.977Z,26.20
2019-03-22T07:06:24.575Z,26.23
2019-03-22T07:08:00.296Z,26.13
2019-03-22T07:09:35.896Z,25.40
2019-03-22T07:11:11.760Z,28.63
2019-03-22T07:12:47.627Z,28.83
2019-03-22T07:14:23.272Z,21.53
2019-03-22T07:15:58.871Z,25.77
2019-03-22T07:17:34.467Z,28.40
2019-03-22T07:19:10.071Z,25.70
2019-03-22T07:20:45.957Z,26.27
2019-03-22T07:22:21.571Z,26.10
2019-03-22T07:23:57.425Z,25.03
2019-03-22T07:25:33.051Z,25.33
2019-03-22T07:27:08.671Z,25.77
2019-03-22T07:28:44.292Z,25.70
2019-03-22T07:30:20.319Z,25.40
2019-03-22T07:31:56.043Z,26.10
2019-03-22T07:33:31.974Z,26.07
2019-03-22T07:35:07.782Z,24.23
2019-03-22T07:36:43.401Z,26.83
2019-03-22T07:38:19.041Z,29.37
2019-03-22T07:39:54.661Z,27.87
2019-03-22T07:41:30.592Z,29.10
2019-03-22T07:43:06.583Z,27.93
2019-03-22T07:44:42.450Z,29.57
2019-03-22T07:46:18.310Z,27.43
2019-03-22T07:47:55.826Z,25.53
2019-03-22T07:49:31.549Z,25.20
2019-03-22T07:51:07.155Z,26.60
2019-03-22T07:52:42.850Z,22.80
2019-03-22T07:54:17.903Z,22.60
2019-03-22T07:55:53.525Z,26.73
2019-03-22T07:57:29.302Z,27.00
2019-03-22T07:59:04.924Z,25.83
2019-03-22T08:00:39.946Z,24.90
2019-03-22T08:02:14.959Z,24.83
2019-03-22T08:03:49.875Z,28.13
2019-03-22T08:05:24.785Z,24.87
2019-03-22T08:07:01.345Z,30.73
2019-03-22T08:08:36.466Z,26.10
2019-03-22T08:10:11.718Z,27.07
2019-03-22T08:11:46.633Z,24.67
2019-03-22T08:13:21.662Z,27.10
2019-03-22T08:14:56.665Z,25.27
2019-03-22T08:16:32.014Z,27.00
2019-03-22T08:18:07.091Z,25.80
2019-03-22T08:19:42.014Z,22.93
2019-03-22T08:21:17.215Z,23.20
2019-03-22T08:22:52.197Z,25.70
2019-03-22T08:24:27.256Z,21.30
2019-03-22T08:26:02.160Z,22.00
2019-03-22T08:27:37.142Z,24.97
2019-03-22T08:29:12.219Z,22.17
2019-03-22T08:30:47.374Z,24.63
2019-03-22T08:32:22.382Z,25.20
2019-03-22T08:33:57.334Z,23.30
2019-03-22T08:35:32.503Z,21.27
2019-03-22T08:37:07.803Z,22.70
2019-03-22T08:38:43.059Z,26.87
2019-03-22T08:40:18.917Z,23.77
2019-03-22T08:41:54.523Z,24.93
2019-03-22T08:43:30.153Z,24.80
2019-03-22T08:45:06.674Z,23.17
2019-03-22T08:46:44.882Z,22.03
2019-03-22T08:48:19.898Z,22.87
2019-03-22T08:49:55.508Z,22.20
2019-03-22T08:51:31.192Z,23.87
2019-03-22T08:53:06.876Z,25.67
2019-03-22T08:54:43.040Z,23.27
2019-03-22T08:56:18.645Z,21.33
2019-03-22T08:57:54.509Z,21.67
2019-03-22T08:59:30.367Z,23.10
2019-03-22T09:01:05.442Z,23.17
2019-03-22T09:02:41.366Z,24.57
2019-03-22T09:04:20.215Z,23.63
2019-03-22T09:05:55.802Z,21.60
2019-03-22T09:07:30.793Z,22.17
2019-03-22T09:09:07.753Z,24.63
2019-03-22T09:10:42.913Z,22.10
2019-03-22T09:12:17.939Z,23.17
2019-03-22T09:13:53.887Z,21.00
2019-03-22T09:15:40.645Z,23.10
2019-03-22T09:17:06.488Z,21.33
2019-03-22T09:18:41.553Z,20.07
2019-03-22T09:20:16.951Z,24.10
2019-03-22T09:21:51.907Z,23.60
2019-03-22T09:23:27.513Z,20.00
2019-03-22T09:25:03.155Z,23.03
2019-03-22T09:26:47.529Z,19.83
2019-03-22T09:28:16.149Z,20.67
2019-03-22T09:29:51.769Z,19.93
2019-03-22T09:31:27.671Z,22.93
2019-03-22T09:33:03.607Z,27.57
2019-03-22T09:34:39.487Z,24.03
2019-03-22T09:36:15.156Z,21.33
2019-03-22T09:37:50.786Z,20.50
2019-03-22T09:39:27.990Z,22.30
2019-03-22T09:41:03.546Z,26.47
2019-03-22T09:42:39.166Z,23.27
2019-03-22T09:44:15.099Z,24.53
2019-03-22T09:45:50.721Z,23.93
2019-03-22T09:47:26.338Z,24.67
2019-03-22T09:49:02.004Z,24.27
2019-03-22T09:50:37.639Z,26.53
2019-03-22T09:52:12.658Z,23.27
2019-03-22T09:53:47.832Z,27.13
2019-03-22T09:55:22.861Z,26.93
2019-03-22T09:56:57.879Z,25.73
2019-03-22T09:58:32.921Z,28.77
2019-03-22T10:00:08.343Z,26.13
2019-03-22T10:01:43.402Z,24.70
2019-03-22T10:03:19.031Z,28.77
2019-03-22T10:04:53.976Z,30.73
2019-03-22T10:06:30.012Z,28.77
2019-03-22T10:08:05.058Z,27.97
2019-03-22T10:09:40.062Z,28.60
2019-03-22T10:11:15.643Z,26.67
2019-03-22T10:12:51.289Z,31.50
2019-03-22T10:14:26.960Z,33.57
2019-03-22T10:16:02.633Z,39.47
2019-03-22T10:17:38.496Z,38.53
2019-03-22T10:19:14.130Z,36.30
2019-03-22T10:20:49.832Z,33.10
2019-03-22T10:22:25.517Z,35.47
2019-03-22T10:24:01.350Z,31.87
2019-03-22T10:25:36.913Z,34.77
2019-03-22T10:27:12.807Z,34.47
2019-03-22T10:28:48.541Z,34.83
2019-03-22T10:30:24.392Z,32.93
2019-03-22T10:32:00.068Z,30.23
2019-03-22T10:33:36.205Z,34.00
2019-03-22T10:35:25.088Z,30.50
2019-03-22T10:36:49.413Z,32.33
2019-03-22T10:38:31.716Z,31.97
2019-03-22T10:40:02.429Z,33.00
2019-03-22T10:41:38.512Z,36.10
2019-03-22T10:43:14.389Z,35.37
2019-03-22T10:44:49.971Z,31.63
2019-03-22T10:46:25.586Z,33.90
2019-03-22T10:48:01.204Z,28.70
2019-03-22T10:49:36.800Z,33.20
2019-03-22T10:51:12.651Z,32.50
2019-03-22T10:52:48.506Z,35.07
2019-03-22T10:54:24.546Z,31.37
2019-03-22T10:56:00.444Z,33.57
2019-03-22T10:57:36.063Z,31.23
2019-03-22T10:59:18.735Z,26.60
2019-03-22T11:00:54.538Z,29.37
2019-03-22T11:02:30.140Z,33.53
2019-03-22T11:05:42.638Z,31.23
2019-03-22T11:07:18.510Z,29.97
2019-03-22T11:08:54.088Z,28.57
2019-03-22T11:10:29.283Z,31.13
2019-03-22T11:12:11.865Z,30.33
2019-03-22T11:13:41.338Z,29.37
2019-03-22T11:15:16.898Z,31.53
2019-03-22T11:16:51.805Z,27.80
2019-03-22T11:18:36.804Z,28.27
2019-03-22T11:20:06.024Z,24.03
2019-03-22T11:21:41.914Z,24.43
2019-03-22T11:23:17.517Z,23.90
2019-03-22T11:24:53.142Z,25.37
2019-03-22T11:26:29.277Z,27.13
2019-03-22T11:28:06.186Z,31.03
2019-03-22T11:29:41.858Z,27.90
2019-03-22T11:31:17.551Z,24.53
2019-03-22T11:32:53.142Z,27.43
2019-03-22T11:34:28.754Z,23.73
2019-03-22T11:36:04.535Z,27.27
2019-03-22T11:37:40.641Z,27.30
2019-03-22T11:39:16.395Z,24.47
2019-03-22T11:40:52.010Z,28.67
2019-03-22T11:42:27.677Z,30.03
2019-03-22T11:44:03.316Z,32.17
2019-03-22T11:45:39.491Z,32.00
2019-03-22T11:47:15.257Z,25.47
2019-03-22T11:48:50.860Z,25.07
2019-03-22T11:51:00.740Z,25.80
2019-03-22T11:52:39.716Z,26.60
2019-03-22T11:55:01.110Z,26.53
2019-03-22T11:56:43.717Z,26.10
2019-03-22T11:58:19.477Z,26.87
2019-03-22T12:00:22.945Z,25.07
2019-03-22T12:05:00.699Z,19.60
2019-03-22T12:06:38.411Z,25.87
2019-03-22T12:08:47.454Z,27.40
2019-03-22T12:10:38.439Z,27.33
2019-03-22T12:12:23.132Z,24.03
2019-03-22T12:15:03.505Z,22.83
2019-03-22T12:16:56.853Z,20.03
2019-03-22T12:18:56.435Z,23.20
2019-03-22T12:20:34.498Z,25.30
2019-03-22T12:22:34.082Z,25.43
2019-03-22T12:24:26.978Z,22.23
2019-03-22T12:27:05.137Z,23.03
2019-03-22T12:29:05.423Z,28.50
2019-03-22T12:30:41.206Z,29.23
2019-03-22T12:32:17.311Z,29.47
2019-03-22T12:33:53.008Z,28.77
2019-03-22T12:35:30.366Z,26.37
2019-03-22T12:37:06.353Z,21.80
2019-03-22T12:38:41.965Z,19.27
2019-03-22T12:40:19.300Z,22.17
2019-03-22T12:41:54.901Z,21.03
2019-03-22T12:43:30.501Z,25.20
2019-03-22T12:45:09.941Z,26.53
2019-03-22T12:46:45.548Z,27.07
2019-03-22T12:48:21.218Z,19.93
2019-03-22T12:49:56.809Z,22.43
2019-03-22T12:51:32.688Z,18.93
2019-03-22T12:53:08.285Z,25.20
2019-03-22T12:54:43.985Z,17.17
2019-03-22T12:56:19.662Z,21.57
2019-03-22T12:57:55.344Z,20.63
2019-03-22T12:59:30.932Z,17.83
2019-03-22T13:01:06.649Z,21.80
2019-03-22T13:02:42.786Z,18.07
2019-03-22T13:04:18.659Z,19.53
2019-03-22T13:05:54.328Z,19.63
2019-03-22T13:07:30.298Z,20.30
2019-03-22T13:09:09.556Z,17.77
2019-03-22T13:10:57.921Z,17.97
2019-03-22T13:12:33.842Z,18.57
2019-03-22T13:14:09.945Z,15.23
2019-03-22T13:15:45.543Z,13.07
2019-03-22T13:17:21.404Z,8.57
2019-03-22T13:18:57.035Z,13.67
2019-03-22T13:20:32.410Z,13.53
2019-03-22T13:22:07.982Z,10.90
2019-03-22T13:23:43.592Z,6.93
2019-03-22T13:25:21.233Z,8.17
2019-03-22T13:26:56.397Z,8.17
2019-03-22T13:28:31.387Z,10.50
2019-03-22T13:30:07.625Z,7.20
2019-03-22T13:31:42.725Z,8.23
2019-03-22T13:33:18.279Z,6.23
2019-03-22T13:34:53.879Z,5.13
2019-03-22T13:36:29.470Z,10.13
2019-03-22T13:38:05.365Z,9.20
2019-03-22T13:39:40.960Z,9.97
2019-03-22T13:41:16.555Z,8.33
2019-03-22T13:43:03.767Z,7.93
2019-03-22T13:44:39.236Z,11.33
2019-03-22T13:46:14.971Z,7.13
2019-03-22T13:47:50.022Z,5.67
2019-03-22T13:49:25.032Z,6.57
2019-03-22T13:51:00.809Z,6.90
2019-03-22T13:52:36.568Z,9.53
2019-03-22T13:54:12.277Z,8.37
2019-03-22T13:55:48.050Z,9.87
2019-03-22T13:57:23.823Z,8.63
2019-03-22T13:58:59.507Z,8.57
2019-03-22T14:00:35.809Z,9.67
2019-03-22T14:02:11.536Z,9.90
2019-03-22T14:03:47.354Z,8.67
2019-03-22T14:05:23.349Z,9.27
2019-03-22T14:06:59.051Z,11.50
2019-03-22T14:08:35.856Z,10.13
2019-03-22T14:10:20.937Z,10.60
2019-03-22T14:11:56.594Z,9.57
2019-03-22T14:13:32.379Z,10.30
2019-03-22T14:15:08.733Z,11.03
2019-03-22T14:16:43.796Z,9.57
2019-03-22T14:18:18.780Z,10.10
2019-03-22T14:19:53.870Z,8.43
2019-03-22T14:21:28.927Z,10.27
2019-03-22T14:23:04.095Z,7.63
2019-03-22T14:24:39.392Z,11.97
2019-03-22T14:26:14.452Z,8.27
2019-03-22T14:27:49.762Z,8.60
2019-03-22T14:29:24.732Z,8.13
2019-03-22T14:30:59.857Z,9.43
2019-03-22T14:32:35.018Z,6.80
2019-03-22T14:34:10.572Z,6.87
2019-03-22T14:35:48.856Z,10.43
2019-03-22T14:37:23.850Z,9.27
2019-03-22T14:38:59.067Z,8.47
2019-03-22T14:40:33.965Z,9.27
2019-03-22T14:42:10.075Z,8.07
2019-03-22T14:43:45.113Z,7.57
2019-03-22T14:45:20.306Z,9.07
2019-03-22T14:46:55.206Z,8.03
2019-03-22T14:48:30.128Z,7.67
2019-03-22T14:50:05.915Z,9.13
2019-03-22T14:51:40.842Z,9.30
2019-03-22T14:53:15.746Z,8.73
2019-03-22T14:54:50.882Z,8.83
2019-03-22T14:56:25.783Z,9.40
2019-03-22T14:58:00.718Z,7.50
2019-03-22T14:59:35.882Z,12.73
2019-03-22T15:01:10.796Z,10.20
2019-03-22T15:02:45.926Z,9.60
2019-03-22T15:04:20.877Z,9.63
2019-03-22T15:05:57.096Z,8.53
2019-03-22T15:07:32.020Z,9.03
2019-03-22T15:09:08.063Z,9.30
2019-03-22T15:10:43.046Z,12.90
2019-03-22T15:12:18.532Z,11.63
2019-03-22T15:14:00.890Z,12.70
2019-03-22T15:15:54.158Z,13.50
2019-03-22T15:17:47.222Z,11.60
2019-03-22T15:19:42.504Z,13.87
2019-03-22T15:21:30.903Z,12.63
2019-03-22T15:23:20.648Z,14.17
2019-03-22T15:25:17.710Z,13.40
2019-03-22T15:27:10.670Z,13.50
2019-03-22T15:29:04.927Z,12.40
2019-03-22T15:31:04.659Z,13.97
2019-03-22T15:33:05.119Z,14.73
2019-03-22T15:34:59.779Z,13.53
2019-03-22T15:36:53.568Z,19.27
2019-03-22T15:38:46.218Z,20.53
2019-03-22T15:40:22.153Z,19.43
2019-03-22T15:41:58.022Z,21.00
2019-03-22T15:43:33.622Z,21.07
2019-03-22T15:45:11.713Z,22.43
2019-03-22T15:46:48.918Z,23.07
2019-03-22T15:48:24.473Z,20.70
2019-03-22T15:50:00.462Z,25.23
2019-03-22T15:51:35.810Z,22.57
2019-03-22T15:53:10.786Z,22.97
2019-03-22T15:54:45.688Z,22.53
2019-03-22T15:56:21.190Z,25.30
2019-03-22T15:57:56.397Z,22.93
2019-03-22T15:59:31.365Z,22.30
2019-03-22T16:01:06.402Z,24.70
2019-03-22T16:02:41.592Z,26.70
2019-03-22T16:04:18.626Z,27.27
2019-03-22T16:05:53.230Z,30.43
2019-03-22T16:07:28.263Z,33.63
2019-03-22T16:09:04.615Z,37.10
2019-03-22T16:10:39.535Z,38.97
2019-03-22T16:12:14.462Z,39.83
2019-03-22T16:13:49.395Z,39.03
2019-03-22T16:15:24.623Z,36.70
2019-03-22T16:16:59.626Z,39.00
2019-03-22T16:18:34.611Z,36.23
2019-03-22T16:20:09.974Z,37.10
2019-03-22T16:21:44.952Z,38.90
2019-03-22T16:23:19.870Z,39.50
2019-03-22T16:24:54.789Z,37.80
2019-03-22T16:26:29.954Z,37.67
2019-03-22T16:28:05.324Z,35.90
2019-03-22T16:29:40.378Z,39.17
2019-03-22T16:31:15.603Z,41.67
2019-03-22T16:32:50.770Z,40.03
2019-03-22T16:34:25.674Z,37.60
2019-03-22T16:36:00.599Z,40.10
2019-03-22T16:37:36.111Z,42.73
2019-03-22T16:39:11.086Z,39.17
2019-03-22T16:40:46.344Z,41.93
2019-03-22T16:42:21.298Z,41.27
2019-03-22T16:43:56.203Z,39.30
2019-03-22T16:45:41.496Z,39.37
2019-03-22T16:47:16.407Z,39.67
2019-03-22T16:48:51.328Z,36.10
2019-03-22T16:50:26.308Z,38.27
2019-03-22T16:52:01.639Z,39.30
2019-03-22T16:53:36.546Z,38.27
2019-03-22T16:55:12.815Z,42.00
2019-03-22T16:56:48.967Z,40.60
2019-03-22T16:58:24.183Z,38.20
2019-03-22T16:59:59.595Z,36.17
2019-03-22T17:01:34.566Z,37.83
2019-03-22T17:03:09.562Z,36.40
2019-03-22T17:04:44.484Z,39.40
2019-03-22T17:06:19.478Z,34.80
2019-03-22T17:07:54.738Z,36.27
2019-03-22T17:09:29.924Z,34.63
2019-03-22T17:11:04.912Z,32.97
2019-03-22T17:12:39.818Z,33.10
2019-03-22T17:14:15.019Z,34.90
2019-03-22T17:15:51.094Z,31.53
2019-03-22T17:17:26.698Z,30.83
2019-03-22T17:19:02.370Z,33.73
2019-03-22T17:20:38.358Z,30.17
2019-03-22T17:22:13.903Z,32.10
2019-03-22T17:23:49.087Z,31.80
2019-03-22T17:25:24.077Z,29.27
2019-03-22T17:26:59.009Z,32.13
2019-03-22T17:28:34.150Z,27.30
2019-03-22T17:30:09.471Z,32.33
2019-03-22T17:31:44.385Z,29.83
2019-03-22T17:33:19.982Z,31.70
2019-03-22T17:34:55.585Z,27.60
2019-03-22T17:36:31.194Z,29.20
2019-03-22T17:38:06.900Z,31.00
2019-03-22T17:39:42.544Z,29.73
2019-03-22T17:41:18.166Z,27.83
2019-03-22T17:42:53.852Z,27.70
2019-03-22T17:44:29.694Z,28.03
2019-03-22T17:46:05.412Z,27.77
2019-03-22T17:47:41.279Z,28.30
2019-03-22T17:49:17.254Z,27.70
2019-03-22T17:50:52.869Z,26.87
2019-03-22T17:52:28.572Z,29.37
2019-03-22T17:54:04.367Z,26.90
2019-03-22T17:55:39.968Z,28.73
2019-03-22T17:57:18.835Z,26.97
2019-03-22T17:58:53.038Z,28.37
2019-03-22T18:00:29.046Z,33.50
2019-03-22T18:02:04.726Z,29.13
2019-03-22T18:03:40.649Z,32.03
2019-03-22T18:05:16.434Z,29.33
2019-03-22T18:06:52.298Z,28.13
2019-03-22T18:08:27.897Z,31.27
2019-03-22T18:10:04.446Z,30.67
2019-03-22T18:11:40.089Z,29.13
2019-03-22T18:13:15.920Z,26.40
2019-03-22T18:14:51.521Z,30.03
2019-03-22T18:16:27.485Z,28.20
2019-03-22T18:18:03.580Z,32.70
2019-03-22T18:19:40.174Z,29.00
2019-03-22T18:21:16.004Z,30.10
2019-03-22T18:22:51.614Z,27.57
2019-03-22T18:24:27.505Z,30.53
2019-03-22T18:26:03.616Z,30.47
2019-03-22T18:27:39.373Z,38.60
2019-03-22T18:29:15.088Z,34.67
2019-03-22T18:30:50.951Z,36.27
2019-03-22T18:32:28.169Z,36.53
2019-03-22T18:34:03.934Z,32.63
2019-03-22T18:35:39.531Z,39.37
2019-03-22T18:37:15.184Z,37.63
2019-03-22T18:38:50.783Z,36.17
2019-03-22T18:40:26.387Z,32.43
2019-03-22T18:42:02.063Z,31.87
2019-03-22T18:43:38.046Z,36.57
2019-03-22T18:45:14.860Z,37.43
2019-03-22T18:46:51.669Z,38.40
2019-03-22T18:48:27.275Z,33.57
2019-03-22T18:50:02.917Z,35.43
2019-03-22T18:51:38.775Z,36.90
2019-03-22T18:53:14.380Z,37.03
2019-03-22T18:54:50.451Z,34.80
2019-03-22T18:56:26.351Z,36.73
2019-03-22T18:58:01.971Z,36.60
2019-03-22T18:59:37.961Z,36.47
2019-03-22T19:01:13.559Z,36.83
2019-03-22T19:02:49.451Z,37.87
2019-03-22T19:04:25.134Z,38.43
2019-03-22T19:06:01.096Z,36.87
2019-03-22T19:07:36.802Z,38.50
2019-03-22T19:09:12.438Z,36.53
2019-03-22T19:10:48.051Z,37.33
2019-03-22T19:12:24.019Z,43.03
2019-03-22T19:14:00.192Z,38.27
2019-03-22T19:15:35.799Z,38.60
2019-03-22T19:17:11.392Z,39.73
2019-03-22T19:18:47.048Z,39.27
2019-03-22T19:20:22.666Z,38.47
2019-03-22T19:21:58.515Z,38.27
2019-03-22T19:23:34.418Z,37.57
2019-03-22T19:25:10.393Z,41.93
2019-03-22T19:26:46.394Z,41.83
2019-03-22T19:28:21.994Z,39.33
2019-03-22T19:29:57.599Z,44.97
2019-03-22T19:31:33.188Z,41.00
2019-03-22T19:33:08.179Z,41.47
2019-03-22T19:34:43.578Z,43.27
2019-03-22T19:36:18.534Z,44.50
2019-03-22T19:37:53.458Z,48.30
2019-03-22T19:39:28.439Z,42.40
2019-03-22T19:41:03.340Z,42.93
2019-03-22T19:42:38.341Z,41.33
2019-03-22T19:44:13.319Z,40.57
2019-03-22T19:45:48.664Z,42.13
2019-03-22T19:47:23.835Z,42.77
2019-03-22T19:48:58.863Z,49.10
2019-03-22T19:50:33.780Z,44.47
2019-03-22T19:52:09.349Z,45.47
2019-03-22T19:53:44.958Z,44.07
2019-03-22T19:55:20.558Z,53.33
2019-03-22T19:56:56.416Z,52.00
2019-03-22T19:58:32.273Z,54.27
2019-03-22T20:00:08.786Z,58.37
2019-03-22T20:01:44.392Z,62.10
2019-03-22T20:03:19.999Z,56.23
2019-03-22T20:05:04.435Z,61.03
2019-03-22T20:06:33.172Z,67.40
2019-03-22T20:08:08.776Z,59.37
2019-03-22T20:09:44.386Z,59.50
2019-03-22T20:11:20.007Z,62.30
2019-03-22T20:12:55.857Z,59.87
2019-03-22T20:14:31.692Z,65.73
2019-03-22T20:16:07.326Z,57.70
2019-03-22T20:17:43.015Z,62.40
2019-03-22T20:19:18.876Z,54.13
2019-03-22T20:20:54.475Z,54.47
2019-03-22T20:22:30.036Z,53.30
2019-03-22T20:24:05.138Z,52.73
2019-03-22T20:25:40.071Z,53.70
2019-03-22T20:27:15.049Z,56.03
2019-03-22T20:28:49.995Z,56.10
2019-03-22T20:30:25.019Z,50.00
2019-03-22T20:31:59.933Z,49.80
2019-03-22T20:33:35.746Z,48.07
2019-03-22T20:35:16.341Z,51.37
2019-03-22T20:36:47.454Z,48.17
2019-03-22T20:38:22.466Z,50.83
2019-03-22T20:39:57.742Z,53.83
2019-03-22T20:41:32.941Z,53.73
2019-03-22T20:43:08.211Z,46.37
2019-03-22T20:44:43.122Z,47.60
2019-03-22T20:46:18.039Z,52.57
2019-03-22T20:47:53.395Z,49.30
2019-03-22T20:49:28.310Z,53.67
2019-03-22T20:51:03.551Z,46.67